createdAt,value
2022-07-26T00:00:12.814Z,100886.44
2022-07-26T00:02:47.429Z,100884.91
2022-07-26T00:05:21.706Z,100883.53
2022-07-26T00:07:50.059Z,100878.03
2022-07-26T00:10:18.304Z,100877.97
2022-07-26T00:12:46.570Z,100870.00
2022-07-26T00:15:14.873Z,100871.25
2022-07-26T00:17:43.611Z,100878.22
2022-07-26T00:20:12.245Z,100877.97
2022-07-26T00:22:41.899Z,100881.19
2022-07-26T00:25:10.909Z,100879.66
2022-07-26T00:27:39.175Z,100865.88
2022-07-26T00:30:09.394Z,100869.75
2022-07-26T00:32:37.777Z,100875.13
2022-07-26T00:35:08.144Z,100871.34
2022-07-26T00:37:36.515Z,100865.31
2022-07-26T00:40:07.139Z,100859.59
2022-07-26T00:42:37.567Z,100854.53
2022-07-26T00:45:14.206Z,100862.88
2022-07-26T00:47:42.575Z,100859.31
2022-07-26T00:50:14.140Z,100854.00
2022-07-26T00:52:43.715Z,100855.53
2022-07-26T00:55:14.351Z,100854.13
2022-07-26T00:57:43.645Z,100855.59
2022-07-26T01:00:14.355Z,100860.38
2022-07-26T01:02:43.094Z,100851.28
2022-07-26T01:05:15.152Z,100855.53
2022-07-26T01:07:43.585Z,100859.31
2022-07-26T01:10:13.910Z,100853.75
2022-07-26T01:12:42.988Z,100852.38
2022-07-26T01:15:13.345Z,100857.84
2022-07-26T01:17:42.567Z,100848.84
2022-07-26T01:20:13.349Z,100862.44
2022-07-26T01:22:43.068Z,100860.00
2022-07-26T01:25:11.913Z,100853.97
2022-07-26T01:27:42.893Z,100853.00
2022-07-26T01:30:13.053Z,100854.91
2022-07-26T01:32:41.362Z,100853.69
2022-07-26T01:35:10.990Z,100846.63
2022-07-26T01:37:39.196Z,100840.41
2022-07-26T01:40:11.122Z,100847.00
2022-07-26T01:42:42.049Z,100846.59
2022-07-26T01:45:12.661Z,100846.38
2022-07-26T01:47:41.366Z,100853.91
2022-07-26T01:50:10.533Z,100847.31
2022-07-26T01:52:39.414Z,100846.44
2022-07-26T01:55:09.934Z,100850.16
2022-07-26T01:57:38.167Z,100842.31
2022-07-26T02:00:07.922Z,100846.41
2022-07-26T02:02:36.446Z,100847.69
2022-07-26T02:05:05.143Z,100847.03
2022-07-26T02:07:38.931Z,100845.28
2022-07-26T02:10:12.689Z,100845.13
2022-07-26T02:12:42.268Z,100839.53
2022-07-26T02:15:12.613Z,100853.25
2022-07-26T02:17:40.850Z,100848.00
2022-07-26T02:20:10.596Z,100833.63
2022-07-26T02:22:38.761Z,100841.28
2022-07-26T02:25:08.980Z,100836.66
2022-07-26T02:27:37.388Z,100842.69
2022-07-26T02:30:06.244Z,100842.97
2022-07-26T02:32:40.761Z,100839.81
2022-07-26T02:35:12.393Z,100835.66
2022-07-26T02:37:43.642Z,100840.78
2022-07-26T02:40:19.070Z,100833.53
2022-07-26T02:42:48.048Z,100836.34
2022-07-26T02:45:16.323Z,100840.94
2022-07-26T02:47:48.582Z,100832.81
2022-07-26T02:50:18.719Z,100841.44
2022-07-26T02:52:48.252Z,100827.94
2022-07-26T02:55:19.256Z,100830.09
2022-07-26T02:57:48.092Z,100828.31
2022-07-26T03:00:17.924Z,100827.94
2022-07-26T03:02:46.181Z,100829.22
2022-07-26T03:05:14.486Z,100821.00
2022-07-26T03:07:43.126Z,100813.25
2022-07-26T03:10:11.811Z,100811.75
2022-07-26T03:12:43.570Z,100813.09
2022-07-26T03:15:12.768Z,100812.53
2022-07-26T03:17:41.211Z,100818.16
2022-07-26T03:20:10.835Z,100823.03
2022-07-26T03:22:38.918Z,100823.63
2022-07-26T03:25:07.387Z,100822.59
2022-07-26T03:27:36.171Z,100816.69
2022-07-26T03:30:06.561Z,100817.72
2022-07-26T03:32:34.828Z,100813.81
2022-07-26T03:35:03.157Z,100821.16
2022-07-26T03:37:45.963Z,100825.72
2022-07-26T03:40:15.961Z,100835.34
2022-07-26T03:42:44.477Z,100832.38
2022-07-26T03:45:15.525Z,100835.97
2022-07-26T03:47:44.237Z,100842.59
2022-07-26T03:50:13.903Z,100836.69
2022-07-26T03:52:42.627Z,100849.66
2022-07-26T03:55:29.581Z,100835.84
2022-07-26T03:58:00.565Z,100840.16
2022-07-26T04:00:30.380Z,100851.97
2022-07-26T04:02:58.653Z,100851.13
2022-07-26T04:05:27.117Z,100846.22
2022-07-26T04:07:56.154Z,100844.19
2022-07-26T04:10:24.686Z,100845.66
2022-07-26T04:12:52.992Z,100836.44
2022-07-26T04:15:29.550Z,100836.59
2022-07-26T04:17:59.593Z,100822.63
2022-07-26T04:20:33.863Z,100821.50
2022-07-26T04:23:02.336Z,100821.78
2022-07-26T04:25:38.654Z,100821.50
2022-07-26T04:28:09.994Z,100801.53
2022-07-26T04:30:38.505Z,100809.28
2022-07-26T04:33:11.329Z,100793.59
2022-07-26T04:35:39.628Z,100780.53
2022-07-26T04:38:07.839Z,100776.69
2022-07-26T04:40:40.395Z,100778.69
2022-07-26T04:43:10.294Z,100774.22
2022-07-26T04:45:44.461Z,100782.25
2022-07-26T04:48:14.389Z,100780.84
2022-07-26T04:50:42.789Z,100777.22
2022-07-26T04:53:11.915Z,100784.72
2022-07-26T04:55:40.597Z,100785.56
2022-07-26T04:58:09.528Z,100782.41
2022-07-26T05:01:02.653Z,100788.59
2022-07-26T05:03:27.688Z,100782.69
2022-07-26T05:05:56.084Z,100785.88
2022-07-26T05:08:24.426Z,100792.03
2022-07-26T05:10:55.486Z,100799.06
2022-07-26T05:13:29.844Z,100800.25
2022-07-26T05:16:01.863Z,100793.34
2022-07-26T05:18:45.846Z,100803.69
2022-07-26T05:21:18.775Z,100796.50
2022-07-26T05:23:46.974Z,100798.22
2022-07-26T05:26:15.205Z,100798.91
2022-07-26T05:28:43.499Z,100807.69
2022-07-26T05:31:18.178Z,100803.09
2022-07-26T05:33:47.894Z,100806.00
2022-07-26T05:36:16.120Z,100813.47
2022-07-26T05:38:44.434Z,100804.28
2022-07-26T05:41:13.086Z,100804.69
2022-07-26T05:43:42.197Z,100820.19
2022-07-26T05:46:12.465Z,100806.25
2022-07-26T05:48:41.070Z,100819.06
2022-07-26T05:51:10.719Z,100812.84
2022-07-26T05:53:39.880Z,100817.47
2022-07-26T05:56:08.483Z,100819.50
2022-07-26T05:58:37.592Z,100812.84
2022-07-26T06:01:08.927Z,100821.50
2022-07-26T06:03:39.610Z,100818.91
2022-07-26T06:06:08.363Z,100825.22
2022-07-26T06:08:38.248Z,100833.84
2022-07-26T06:11:07.023Z,100835.00
2022-07-26T06:13:35.362Z,100846.66
2022-07-26T06:16:03.587Z,100841.34
2022-07-26T06:18:35.244Z,100839.19
2022-07-26T06:21:09.333Z,100830.72
2022-07-26T06:23:40.647Z,100833.97
2022-07-26T06:26:09.422Z,100848.94
2022-07-26T06:28:39.510Z,100847.22
2022-07-26T06:31:07.871Z,100850.13
2022-07-26T06:33:36.023Z,100850.97
2022-07-26T06:36:04.476Z,100849.81
2022-07-26T06:38:33.496Z,100851.25
2022-07-26T06:41:06.620Z,100847.91
2022-07-26T06:43:34.995Z,100846.34
2022-07-26T06:46:03.331Z,100853.38
2022-07-26T06:48:31.801Z,100861.75
2022-07-26T06:51:02.570Z,100869.47
2022-07-26T06:53:30.856Z,100872.19
2022-07-26T06:55:58.930Z,100881.22
2022-07-26T06:58:28.576Z,100885.88
2022-07-26T07:00:57.237Z,100882.13
2022-07-26T07:03:25.753Z,100878.25
2022-07-26T07:06:00.369Z,100885.00
2022-07-26T07:08:35.470Z,100890.31
2022-07-26T07:11:06.516Z,100884.13
2022-07-26T07:13:42.847Z,100887.66
2022-07-26T07:16:11.281Z,100885.22
2022-07-26T07:18:39.598Z,100877.59
2022-07-26T07:21:08.354Z,100888.25
2022-07-26T07:23:36.702Z,100897.34
2022-07-26T07:26:05.002Z,100904.38
2022-07-26T07:28:34.542Z,100904.53
2022-07-26T07:31:04.318Z,100907.25
2022-07-26T07:33:36.712Z,100907.75
2022-07-26T07:36:12.352Z,100914.31
2022-07-26T07:38:45.483Z,100935.97
2022-07-26T07:41:13.695Z,100928.41
2022-07-26T07:43:42.275Z,100924.66
2022-07-26T07:46:12.896Z,100923.78
2022-07-26T07:48:46.995Z,100916.91
2022-07-26T07:51:16.072Z,100929.00
2022-07-26T07:53:56.755Z,100941.75
2022-07-26T07:56:26.384Z,100952.88
2022-07-26T07:58:57.844Z,100960.44
2022-07-26T08:01:39.447Z,100967.44
2022-07-26T08:04:09.617Z,100966.22
2022-07-26T08:06:38.442Z,100965.31
2022-07-26T08:09:13.126Z,100963.44
2022-07-26T08:11:42.067Z,100972.13
2022-07-26T08:14:20.222Z,100965.56
2022-07-26T08:16:56.066Z,100974.47
2022-07-26T08:19:41.638Z,100974.31
2022-07-26T08:22:16.103Z,100986.50
2022-07-26T08:24:47.113Z,100987.31
2022-07-26T08:27:18.744Z,100970.16
2022-07-26T08:29:50.369Z,100985.19
2022-07-26T08:32:20.395Z,100981.13
2022-07-26T08:34:49.000Z,100999.59
2022-07-26T08:37:18.104Z,100996.53
2022-07-26T08:39:47.972Z,100988.09
2022-07-26T08:42:22.757Z,100995.72
2022-07-26T08:44:52.040Z,100993.53
2022-07-26T08:47:37.461Z,100985.00
2022-07-26T08:50:11.315Z,100996.50
2022-07-26T08:52:42.644Z,101002.44
2022-07-26T08:55:11.821Z,101009.31
2022-07-26T08:57:40.418Z,101002.22
2022-07-26T09:00:21.155Z,100997.66
2022-07-26T09:02:50.898Z,101002.97
2022-07-26T09:05:20.647Z,101006.31
2022-07-26T09:07:50.815Z,101008.91
2022-07-26T09:10:19.370Z,100999.19
2022-07-26T09:12:53.949Z,101007.50
2022-07-26T09:15:24.984Z,101010.91
2022-07-26T09:17:57.163Z,101019.13
2022-07-26T09:23:44.946Z,101053.28
2022-07-26T09:26:49.428Z,101060.25
2022-07-26T09:30:04.402Z,101070.78
2022-07-26T09:32:38.788Z,101071.19
2022-07-26T09:35:50.033Z,101070.59
2022-07-26T09:38:17.069Z,101075.94
2022-07-26T09:40:52.130Z,101078.59
2022-07-26T09:43:24.467Z,101083.63
2022-07-26T09:46:07.520Z,101084.88
2022-07-26T09:51:57.238Z,101087.19
2022-07-26T09:54:33.696Z,101084.44
2022-07-26T09:57:02.430Z,101083.34
2022-07-26T09:59:40.344Z,101085.88
2022-07-26T10:02:10.510Z,101094.03
2022-07-26T10:04:39.059Z,101109.31
2022-07-26T10:07:11.939Z,101122.44
2022-07-26T10:09:56.502Z,101123.59
2022-07-26T10:12:30.778Z,101132.28
2022-07-26T10:14:59.218Z,101129.66
2022-07-26T10:17:42.900Z,101131.41
2022-07-26T10:20:17.370Z,101152.31
2022-07-26T10:22:54.274Z,101148.66
2022-07-26T10:25:47.882Z,101134.81
2022-07-26T10:28:36.649Z,101134.97
2022-07-26T10:31:29.646Z,101128.16
2022-07-26T10:33:59.668Z,101119.69
2022-07-26T10:36:35.688Z,101133.72
2022-07-26T10:39:16.760Z,101129.25
2022-07-26T10:41:48.398Z,101128.16
2022-07-26T10:44:24.479Z,101134.34
2022-07-26T10:47:22.071Z,101135.78
2022-07-26T10:49:57.592Z,101139.44
2022-07-26T10:52:28.022Z,101138.22
2022-07-26T10:55:19.629Z,101131.84
2022-07-26T10:57:53.691Z,101129.44
2022-07-26T11:00:28.763Z,101126.09
2022-07-26T11:03:01.254Z,101129.59
2022-07-26T11:05:33.793Z,101135.81
2022-07-26T11:08:10.408Z,101121.66
2022-07-26T11:10:43.549Z,101113.66
2022-07-26T11:13:18.208Z,101130.47
2022-07-26T11:15:49.821Z,101137.56
2022-07-26T11:18:25.236Z,101141.47
2022-07-26T11:21:00.279Z,101139.53
2022-07-26T11:23:36.445Z,101146.50
2022-07-26T11:26:10.908Z,101156.88
2022-07-26T11:28:54.557Z,101178.47
2022-07-26T11:31:51.299Z,101181.44
2022-07-26T11:34:24.377Z,101176.34
2022-07-26T11:36:58.731Z,101178.47
2022-07-26T11:39:32.922Z,101175.03
2022-07-26T11:42:17.044Z,101178.66
2022-07-26T11:44:48.727Z,101181.78
2022-07-26T11:47:25.261Z,101184.59
2022-07-26T11:50:18.259Z,101175.66
2022-07-26T11:52:49.515Z,101174.88
2022-07-26T11:55:28.236Z,101172.06
2022-07-26T11:58:05.012Z,101181.97
2022-07-26T12:00:35.840Z,101174.59
2022-07-26T12:03:04.385Z,101182.06
2022-07-26T12:05:33.501Z,101183.50
2022-07-26T12:08:04.296Z,101176.97
2022-07-26T12:10:39.068Z,101183.31
2022-07-26T12:13:19.392Z,101175.78
2022-07-26T12:15:55.834Z,101185.88
2022-07-26T12:18:30.841Z,101191.16
2022-07-26T12:21:06.301Z,101196.47
2022-07-26T12:23:42.941Z,101197.72
2022-07-26T12:26:26.357Z,101202.09
2022-07-26T12:28:56.638Z,101194.72
2022-07-26T12:31:27.769Z,101212.03
2022-07-26T12:33:59.552Z,101210.19
2022-07-26T12:36:29.818Z,101211.09
2022-07-26T12:38:59.851Z,101219.88
2022-07-26T12:41:36.526Z,101207.28
2022-07-26T12:44:08.812Z,101208.75
2022-07-26T12:46:40.751Z,101194.16
2022-07-26T12:49:09.422Z,101214.09
2022-07-26T12:51:38.379Z,101204.88
2022-07-26T12:54:07.571Z,101205.34
2022-07-26T12:56:36.252Z,101215.50
2022-07-26T12:59:04.546Z,101204.66
2022-07-26T13:01:34.353Z,101200.25
2022-07-26T13:04:02.954Z,101197.75
2022-07-26T13:06:33.011Z,101198.16
2022-07-26T13:09:02.011Z,101217.16
2022-07-26T13:11:30.453Z,101209.13
2022-07-26T13:13:59.055Z,101200.47
2022-07-26T13:16:27.562Z,101204.69
2022-07-26T13:18:57.562Z,101205.03
2022-07-26T13:21:33.379Z,101211.22
2022-07-26T13:24:02.089Z,101204.16
2022-07-26T13:26:30.733Z,101208.69
2022-07-26T13:29:00.309Z,101206.31
2022-07-26T13:31:29.220Z,101209.78
2022-07-26T13:33:59.478Z,101207.91
2022-07-26T13:36:28.261Z,101214.88
2022-07-26T13:38:56.691Z,101221.06
2022-07-26T13:41:25.987Z,101224.16
2022-07-26T13:43:55.760Z,101211.06
2022-07-26T13:46:31.197Z,101209.66
2022-07-26T13:49:05.560Z,101224.88
2022-07-26T13:51:53.989Z,101223.72
2022-07-26T13:54:27.873Z,101225.44
2022-07-26T13:57:02.078Z,101226.75
2022-07-26T13:59:42.055Z,101230.19
2022-07-26T14:02:15.499Z,101234.47
2022-07-26T14:04:45.802Z,101239.50
2022-07-26T14:07:17.666Z,101241.16
2022-07-26T14:09:47.833Z,101233.72
2022-07-26T14:12:16.220Z,101243.03
2022-07-26T14:14:48.017Z,101252.56
2022-07-26T14:17:18.578Z,101256.47
2022-07-26T14:19:48.823Z,101259.25
2022-07-26T14:22:17.061Z,101254.91
2022-07-26T14:24:45.190Z,101255.78
2022-07-26T14:27:15.068Z,101252.22
2022-07-26T14:29:46.531Z,101243.59
2022-07-26T14:32:21.085Z,101243.22
2022-07-26T14:34:51.470Z,101238.56
2022-07-26T14:37:42.483Z,101235.94
2022-07-26T14:40:14.681Z,101224.03
2022-07-26T14:42:43.377Z,101212.31
2022-07-26T14:45:12.990Z,101217.66
2022-07-26T14:47:45.474Z,101227.97
2022-07-26T14:50:17.653Z,101238.19
2022-07-26T14:52:48.651Z,101238.28
2022-07-26T14:55:25.310Z,101257.75
2022-07-26T14:57:57.615Z,101260.66
2022-07-26T15:00:29.341Z,101264.56
2022-07-26T15:03:04.756Z,101269.56
2022-07-26T15:05:42.880Z,101272.34
2022-07-26T15:08:14.010Z,101277.75
2022-07-26T15:10:42.438Z,101280.56
2022-07-26T15:13:11.870Z,101283.03
2022-07-26T15:15:40.398Z,101276.06
2022-07-26T15:18:08.902Z,101277.72
2022-07-26T15:20:41.572Z,101284.19
2022-07-26T15:23:11.656Z,101283.75
2022-07-26T15:25:40.647Z,101288.44
2022-07-26T15:28:12.916Z,101283.13
2022-07-26T15:30:43.823Z,101278.88
2022-07-26T15:33:15.847Z,101284.34
2022-07-26T15:35:45.925Z,101291.34
